Station info - map view · info · telemetry · weather · raw · status · beacons · messages · bulletins · browse · moving · my account
Callsign, ship name or locator: Clear       
It is possible to search using wildcards (*?) after a prefix. Example: OH*
APRS station N8KXM-9 - show graphs
Map loading...
Comment: Just driving around!
Mic-E message: In service
Location: 35°21.90' N 86°43.94' W - locator EM65PI27CO - show map - static map
6.1 miles East bearing 88° from Cornersville, Marshall County, Tennessee, United States [?]
6.6 miles Southeast bearing 151° from Lewisburg, Marshall County, Tennessee, United States
44.6 miles North bearing 349° from Huntsville, Madison County, Alabama, United States
55.4 miles South bearing 177° from Nashville, Davidson County, Tennessee, United States
Last position: 2018-06-20 13:42:39 EDT (1d 8h7m ago)
2018-06-20 12:42:39 CDT local time at Cornersville, United States [?]
Altitude: 955 ft
Course: 206°
Speed: 25 MPH
Device: Kenwood: TM-D710 (rig)
Last path: N8KXM-9>S5RQ9P via W4GGM-1*,WIDE2-1,qAR,K4HCK (good)
Positions stored: 8357
Packet rate: 213 seconds between packets on average during 5741 seconds.
Stations near current position of N8KXM-9 - show more
callsign distance last heard - EDT      callsign distance last heard - EDT
EW228011.5 miles 195°2018-06-21 21:45:16 KK4PTE13.9 miles 309°2018-06-21 21:40:08
DW063917.3 miles 69°2018-06-21 21:42:49 KV1TKO-1020.6 miles 235°2018-06-13 04:24:17
W4GGM-122.2 miles 306°2018-06-21 21:20:13 KB4FHU-122.5 miles 315°2018-06-21 16:44:55
Kb4fhu-122.5 miles 315°2018-06-21 09:28:59 147.1222.9 miles 302°2018-06-21 21:34:15
443.17523.4 miles 306°2018-06-21 21:25:11 HUNSVR1MA23.6 miles 106°2018-05-31 22:04:11
KJ4JEK-925.2 miles 307°2018-06-21 21:45:15 KI4UJY-525.9 miles 95°2018-06-03 15:54:21
KI4UJY-i25.9 miles 95°2018-06-02 14:10:53 KI4UJY-126.0 miles 96°2018-06-09 12:16:28
KI4UJY-1026.0 miles 96°2018-05-25 10:15:32 N241RV27.6 miles 86°2018-06-09 11:21:38
EW434127.7 miles 292°2018-06-21 21:45:32 ND9W-728.0 miles 310°2018-06-16 11:26:07
ND9W B28.1 miles 310°2018-06-21 08:19:10 ND9W-B28.1 miles 310°2018-06-21 08:19:20
Stations which heard N8KXM-9 directly on radio –
callsign pkts first heard - EDT last heard longest (tx => rx) longest at - EDT
NT4UX-2 1 2018-06-20 13:32:32 2018-06-20 13:32:32 EM65OK > EM75AU 52.7 miles 56° 2018-06-20 13:32:32
N9UMJ-10 4 2018-06-03 10:49:21 2018-06-03 11:28:12 EM79AJ > EM68QR 59.2 miles 220° 2018-06-03 10:49:21
NT4UX-3 3 2018-06-03 16:28:36 2018-06-03 16:36:20 EM66OA > EM66NG 17.7 miles 338° 2018-06-03 16:36:20
AA4VU-1 6 2018-06-03 16:14:13 2018-06-03 16:26:35 EM66PH > EM66OD 13.1 miles 206° 2018-06-03 16:14:13
W1ARN-1 22 2018-06-03 14:59:11 2018-06-03 16:34:24 EM67VA > EM66SL 41.2 miles 199° 2018-06-03 14:59:11
W4GGM-1 28 2018-06-03 17:10:10 2018-06-20 13:42:09 EM65PI > EM65LN 22.2 miles 306° 2018-06-03 18:41:11
N9AMN-2 2 2018-06-03 10:28:10 2018-06-03 10:28:44 EM69WQ > EM69WR 2.4 miles 297° 2018-06-03 10:28:44
K9APR-5 2 2018-06-03 09:05:18 2018-06-03 09:16:07 EN70MB > EM79LV 12.5 miles 202° 2018-06-03 09:05:18
WA8ZWJ-1 27 2018-06-02 17:07:06 2018-06-02 19:39:26 EM79VT > EM79TV 9.3 miles 307° 2018-06-02 19:03:54
N5AAA-1 38 2018-06-03 16:37:02 2018-06-20 13:28:29 EM65PI > EM65NQ 24.7 miles 336° 2018-06-20 12:19:18
KI6SZ-2 2 2018-06-02 17:14:14 2018-06-02 19:07:17 EM79UX > EM79WT 16.1 miles 127° 2018-06-02 17:14:14
KJ4NES-3 12 2018-06-03 14:58:00 2018-06-03 15:43:34 EM66RP > EM67RA 23.7 miles 4° 2018-06-03 15:32:38
WA9RDF-10 1 2018-06-03 10:38:46 2018-06-03 10:38:46 EM69XN > EM69XL 5.7 miles 197° 2018-06-03 10:38:46
W9ICE-10 21 2018-06-03 09:44:53 2018-06-03 10:49:24 EM79HU > EM69VV 44.2 miles 274° 2018-06-03 09:44:53
N9LQP-2 14 2018-06-03 10:22:14 2018-06-03 11:45:32 EM69XS > EM79FF 43.0 miles 146° 2018-06-03 10:22:14
W8VFR-3 1 2018-06-02 19:08:54 2018-06-02 19:08:54 EM79VU > EM79TP 15.8 miles 201° 2018-06-02 19:08:54
W8VFR-4 1 2018-06-02 19:05:06 2018-06-02 19:05:06 EM79VT > EM79TR 10.9 miles 238° 2018-06-02 19:05:06
N8VKX-10 1 2018-06-01 13:01:25 2018-06-01 13:01:25 EN70SA > EM79RU 12.4 miles 214° 2018-06-01 13:01:25
N9CVA-10 30 2018-06-03 11:30:27 2018-06-03 14:14:37 EM77BN > EM78BI 55.3 miles 2° 2018-06-03 14:14:37
KS9N-10 2 2018-06-03 08:56:24 2018-06-03 09:30:07 EN70OB > EM79NT 16.5 miles 198° 2018-06-03 08:56:24
W8VFR-11 3 2018-06-03 09:17:16 2018-06-03 09:33:21 EN70KB > EM79NO 33.8 miles 157° 2018-06-03 09:17:16
WE9MA-3 12 2018-06-03 09:07:59 2018-06-03 09:53:47 EN70MB > EM79HW 21.7 miles 249° 2018-06-03 09:07:59
KD8LXB-10 1 2018-06-02 17:02:29 2018-06-02 17:02:29 EN70SB > EM79QR 21.2 miles 193° 2018-06-02 17:02:29
KY9J-10 1 2018-06-03 12:20:59 2018-06-03 12:20:59 EM78CL > EM78DK 4.9 miles 109° 2018-06-03 12:20:59
KK4ZDZ-10 7 2018-06-03 13:51:58 2018-06-03 14:27:06 EM78CF > EM78EC 11.4 miles 152° 2018-06-03 13:51:58
W8VFR-8 29 2018-06-01 09:53:17 2018-06-03 09:03:52 EN70MB > EM79QW 18.3 miles 120° 2018-06-03 09:03:52
W4RRK 2 2018-06-03 14:36:27 2018-06-03 14:38:42 EM77AF > EM77BE 4.3 miles 158° 2018-06-03 14:36:27
KE0JMK-2 3 2018-06-02 18:52:28 2018-06-02 19:03:24 EM79VT > EM79WR 8.6 miles 158° 2018-06-02 19:03:24
N4QAD-1 13 2018-06-01 10:01:45 2018-06-03 08:44:17 EN70QB > EN70TI 23.2 miles 35° 2018-06-03 08:44:17
WB9FIU 1 2018-06-03 11:17:16 2018-06-03 11:17:16 EM79AE > EM79BF 6.2 miles 49° 2018-06-03 11:17:16
KD8EVI-10 1 2018-06-01 12:47:21 2018-06-01 12:47:21 EN70SA > EN70VD 14.8 miles 45° 2018-06-01 12:47:21

Only position packets which were originated by the station are shown here. The range statistics show some extra long hops, because some digipeaters do not correctly add themselves to the digipeater path. Please check the raw packets.
About this site
This page shows real-time information collected from the Automatic Position Reporting System Internet network (APRS-IS). APRS is used by amateur (ham) radio operators to transmit real-time position information, weather data, telemetry and messages over the radio. A vehicle equipped with a GPS receiver, a VHF transmitter or HF transceiver and a small computer device called a tracker transmits it's location, speed and course in a small data packet, which is then received by a nearby iGate receiving site which forwards the packet on the Internet. Systems connected to the Internet can send information on the APRS-IS without a radio transmitter, or collect and display information transmitted anywhere in the world.
FAQ · Blog · Discussion group · Linking to aprs.fi · AIS sites · Service status · Database statistics · Advertising on aprs.fi · Technical details · API · Change log · Planned changes · Credits and thanks · Terms Of Service · iPhone/iPad APRS